APL Managua — V2DG7 — position and weather

sailwx.info

Track history (hours):
 
Tides and Currents Weather Stations Pressure Air Temp Water Temp Dewpoint Dewpoint Depression Visibility Wind Speed Wind Dir Waves Ship Positions

APL Managua

Last reported at 2017-Nov-09 18:31 UTC. Time now 2017-Nov-21 13:35 UTC.
Position N 17°46' W 063°06'.
Warning: this ship's position is 11 days out of date.

Length 166 m; draft 7.3 m.

Type: Ship (hazmat cat B). MMSI: 305208000.

Date/timePositionNaut miles runAvg speedWind from/ knotsBaromVisibWave heightAir tempDewpointWater temp
2017-Nov-09 18:31N 17°46' W 063°06'718.6
2017-Nov-09 18:08N 17°53' W 063°06'7 1.0
2017-Nov-09 11:05N 18°00' W 063°04'110.8
2017-Nov-09 11:00N 17°60' W 063°05'2 1.6
2017-Nov-09 09:54N 17°59' W 063°06'1 1.5
2017-Nov-09 09:28N 17°60' W 063°07'0 0.9
2017-Nov-09 08:59N 17°59' W 063°07'0 1.0
2017-Nov-09 08:30N 17°59' W 063°07'0 0.9
2017-Nov-09 08:00N 17°59' W 063°06'1 1.6
2017-Nov-09 07:29N 17°58' W 063°06'8212.2
2017-Nov-09 00:48N 16°42' W 062°34'413.1
2017-Nov-09 00:30N 16°39' W 062°32'713.2
2017-Nov-09 00:00N 16°33' W 062°28'713.2
2017-Nov-08 23:30N 16°28' W 062°25'713.3
2017-Nov-08 23:00N 16°22' W 062°21'713.1
2017-Nov-08 22:30N 16°17' W 062°17'612.8
2017-Nov-08 22:00N 16°11' W 062°13'2812.5
2017-Nov-08 19:48N 15°57' W 061°49'413.3
2017-Nov-08 19:28N 15°55' W 061°45'912.6
2017-Nov-08 18:43N 15°57' W 061°35'613.6
2017-Nov-08 18:16N 16°01' W 061°31'614.5
2017-Nov-08 17:50N 16°08' W 061°30'411.3
2017-Nov-08 17:30N 16°11' W 061°31'3 5.8
2017-Nov-08 17:00N 16°14' W 061°33'0 0.0
2017-Nov-08 16:11N 16°14' W 061°33'0 0.0
2017-Nov-08 15:59N 16°14' W 061°33'0 0.0
2017-Nov-08 15:17N 16°14' W 061°33'0 0.0
2017-Nov-08 14:53N 16°14' W 061°33'0 0.0
2017-Nov-08 14:11N 16°14' W 061°33'0 0.0
2017-Nov-08 13:59N 16°14' W 061°33'0 0.0
2017-Nov-08 13:11N 16°14' W 061°33'0 0.0
2017-Nov-08 12:59N 16°14' W 061°33'0 0.0
2017-Nov-08 12:26N 16°14' W 061°33'0 0.0
2017-Nov-08 11:59N 16°14' W 061°33'0 0.0
2017-Nov-08 11:20N 16°14' W 061°33'0 0.0
2017-Nov-08 10:59N 16°14' W 061°33'0 0.0
2017-Nov-08 10:17N 16°14' W 061°33'0 0.0
2017-Nov-08 09:56N 16°14' W 061°33'0 0.0
2017-Nov-08 09:29N 16°14' W 061°33'1 1.9
2017-Nov-08 09:00N 16°13' W 061°32'4 7.8
2017-Nov-08 08:30N 16°10' W 061°30'1 1.3
2017-Nov-08 08:00N 16°09' W 061°30'0 1.0
2017-Nov-08 07:30N 16°09' W 061°29'1 1.3
2017-Nov-08 07:00N 16°08' W 061°29'5 9.1
2017-Nov-08 06:30N 16°04' W 061°28'2111.7
2017-Nov-08 04:39N 15°43' W 061°32'211.4
2017-Nov-08 04:30N 15°41' W 061°33'611.3
2017-Nov-08 04:00N 15°36' W 061°35'1712.1
2017-Nov-08 02:35N 15°19' W 061°35'712.7
2017-Nov-08 02:04N 15°12' W 061°34'113.5
2017-Nov-08 02:00N 15°11' W 061°34'3313.2
2017-Nov-07 23:31N 14°44' W 061°15'013.1
2017-Nov-07 23:30N 14°44' W 061°15'611.9
2017-Nov-07 22:59N 14°39' W 061°12'710.6
2017-Nov-07 22:20N 14°35' W 061°05'2 7.1
2017-Nov-07 22:00N 14°35' W 061°03'0 0.1
2017-Nov-07 21:26N 14°35' W 061°03'0 0.0
2017-Nov-07 20:55N 14°35' W 061°03'0 0.0
2017-Nov-07 20:28N 14°35' W 061°03'0 0.0
2017-Nov-07 19:58N 14°35' W 061°03'0 0.0
2017-Nov-07 19:28N 14°35' W 061°03'0 0.0
2017-Nov-07 18:58N 14°35' W 061°03'0 0.0
2017-Nov-07 18:28N 14°35' W 061°03'0 0.0
2017-Nov-07 17:58N 14°35' W 061°03'0 0.0
2017-Nov-07 17:28N 14°35' W 061°03'0 0.5
2017-Nov-07 17:01N 14°36' W 061°03'3 5.8
2017-Nov-07 16:30N 14°35' W 061°06'0 1.0
2017-Nov-07 16:00N 14°35' W 061°07'3 6.9
2017-Nov-07 15:30N 14°36' W 061°10'714.3
2017-Nov-07 14:59N 14°42' W 061°14'  
2017-Nov-01 22:01N 37°21' W 027°05'016.9
2017-Nov-01 22:00N 37°22' W 027°04'816.6
2017-Nov-01 21:31N 37°26' W 026°56'916.8
2017-Nov-01 21:00N 37°31' W 026°46'816.6
2017-Nov-01 20:30N 37°35' W 026°38'917.1
2017-Nov-01 20:01N 37°40' W 026°29'917.0
2017-Nov-01 19:30N 37°45' W 026°20'817.1
2017-Nov-01 19:01N 37°49' W 026°11'917.3
2017-Nov-01 18:30N 37°54' W 026°02'  
Track history (hours):
 
Tides and Currents Weather Stations Pressure Air Temp Water Temp Dewpoint Dewpoint Depression Visibility Wind Speed Wind Dir Waves Ship Positions

APL Managua

Last reported at 2017-Nov-09 18:31 UTC. Time now 2017-Nov-21 13:35 UTC.
Position N 17°46' W 063°06'.
Warning: this ship's position is 11 days out of date.

Length 166 m; draft 7.3 m.

Type: Ship (hazmat cat B). MMSI: 305208000.

Date/timePositionNaut miles runAvg speedWind from/ knotsBaromVisibWave heightAir tempDewpointWater temp
2017-Nov-09 18:31N 17°46' W 063°06'718.6
2017-Nov-09 18:08N 17°53' W 063°06'7 1.0
2017-Nov-09 11:05N 18°00' W 063°04'110.8
2017-Nov-09 11:00N 17°60' W 063°05'2 1.6
2017-Nov-09 09:54N 17°59' W 063°06'1 1.5
2017-Nov-09 09:28N 17°60' W 063°07'0 0.9
2017-Nov-09 08:59N 17°59' W 063°07'0 1.0
2017-Nov-09 08:30N 17°59' W 063°07'0 0.9
2017-Nov-09 08:00N 17°59' W 063°06'1 1.6
2017-Nov-09 07:29N 17°58' W 063°06'8212.2
2017-Nov-09 00:48N 16°42' W 062°34'413.1
2017-Nov-09 00:30N 16°39' W 062°32'713.2
2017-Nov-09 00:00N 16°33' W 062°28'713.2
2017-Nov-08 23:30N 16°28' W 062°25'713.3
2017-Nov-08 23:00N 16°22' W 062°21'713.1
2017-Nov-08 22:30N 16°17' W 062°17'612.8
2017-Nov-08 22:00N 16°11' W 062°13'2812.5
2017-Nov-08 19:48N 15°57' W 061°49'413.3
2017-Nov-08 19:28N 15°55' W 061°45'912.6
2017-Nov-08 18:43N 15°57' W 061°35'613.6
2017-Nov-08 18:16N 16°01' W 061°31'614.5
2017-Nov-08 17:50N 16°08' W 061°30'411.3
2017-Nov-08 17:30N 16°11' W 061°31'3 5.8
2017-Nov-08 17:00N 16°14' W 061°33'0 0.0
2017-Nov-08 16:11N 16°14' W 061°33'0 0.0
2017-Nov-08 15:59N 16°14' W 061°33'0 0.0
2017-Nov-08 15:17N 16°14' W 061°33'0 0.0
2017-Nov-08 14:53N 16°14' W 061°33'0 0.0
2017-Nov-08 14:11N 16°14' W 061°33'0 0.0
2017-Nov-08 13:59N 16°14' W 061°33'0 0.0
2017-Nov-08 13:11N 16°14' W 061°33'0 0.0
2017-Nov-08 12:59N 16°14' W 061°33'0 0.0
2017-Nov-08 12:26N 16°14' W 061°33'0 0.0
2017-Nov-08 11:59N 16°14' W 061°33'0 0.0
2017-Nov-08 11:20N 16°14' W 061°33'0 0.0
2017-Nov-08 10:59N 16°14' W 061°33'0 0.0
2017-Nov-08 10:17N 16°14' W 061°33'0 0.0
2017-Nov-08 09:56N 16°14' W 061°33'0 0.0
2017-Nov-08 09:29N 16°14' W 061°33'1 1.9
2017-Nov-08 09:00N 16°13' W 061°32'4 7.8
2017-Nov-08 08:30N 16°10' W 061°30'1 1.3
2017-Nov-08 08:00N 16°09' W 061°30'0 1.0
2017-Nov-08 07:30N 16°09' W 061°29'1 1.3
2017-Nov-08 07:00N 16°08' W 061°29'5 9.1
2017-Nov-08 06:30N 16°04' W 061°28'2111.7
2017-Nov-08 04:39N 15°43' W 061°32'211.4
2017-Nov-08 04:30N 15°41' W 061°33'611.3
2017-Nov-08 04:00N 15°36' W 061°35'1712.1
2017-Nov-08 02:35N 15°19' W 061°35'712.7
2017-Nov-08 02:04N 15°12' W 061°34'113.5
2017-Nov-08 02:00N 15°11' W 061°34'3313.2
2017-Nov-07 23:31N 14°44' W 061°15'013.1
2017-Nov-07 23:30N 14°44' W 061°15'611.9
2017-Nov-07 22:59N 14°39' W 061°12'710.6
2017-Nov-07 22:20N 14°35' W 061°05'2 7.1
2017-Nov-07 22:00N 14°35' W 061°03'0 0.1
2017-Nov-07 21:26N 14°35' W 061°03'0 0.0
2017-Nov-07 20:55N 14°35' W 061°03'0 0.0
2017-Nov-07 20:28N 14°35' W 061°03'0 0.0
2017-Nov-07 19:58N 14°35' W 061°03'0 0.0
2017-Nov-07 19:28N 14°35' W 061°03'0 0.0
2017-Nov-07 18:58N 14°35' W 061°03'0 0.0
2017-Nov-07 18:28N 14°35' W 061°03'0 0.0
2017-Nov-07 17:58N 14°35' W 061°03'0 0.0
2017-Nov-07 17:28N 14°35' W 061°03'0 0.5
2017-Nov-07 17:01N 14°36' W 061°03'3 5.8
2017-Nov-07 16:30N 14°35' W 061°06'0 1.0
2017-Nov-07 16:00N 14°35' W 061°07'3 6.9
2017-Nov-07 15:30N 14°36' W 061°10'714.3
2017-Nov-07 14:59N 14°42' W 061°14'  
2017-Nov-01 22:01N 37°21' W 027°05'016.9
2017-Nov-01 22:00N 37°22' W 027°04'816.6
2017-Nov-01 21:31N 37°26' W 026°56'916.8
2017-Nov-01 21:00N 37°31' W 026°46'816.6
2017-Nov-01 20:30N 37°35' W 026°38'917.1
2017-Nov-01 20:01N 37°40' W 026°29'917.0
2017-Nov-01 19:30N 37°45' W 026°20'817.1
2017-Nov-01 19:01N 37°49' W 026°11'917.3
2017-Nov-01 18:30N 37°54' W 026°02'  

Dump ship's entire track history